Time;durP1;ratioP1;P1;durP2;ratioP2;P2;SDS_P1;SDS_P2;PMS_P1;PMS_P2;Temp;Humidity;BMP_temperature;BMP_pressure;BME280_temperature;BME280_humidity;BME280_pressure;Samples;Min_cycle;Max_cycle;Signal;HPM_P1;HPM_P2
2023/12/23 00:01:29;;;;;;;19.95;6.03;;;;;;;4.23;67.60;98091.25;5046699;28;20029;-74
2023/12/23 00:03:55;;;;;;;12.95;4.80;;;;;;;4.24;67.57;98090.09;5067772;28;20024;-74
2023/12/23 00:06:20;;;;;;;10.05;4.35;;;;;;;4.20;66.22;98083.56;5037342;28;20033;-74
2023/12/23 00:08:46;;;;;;;7.68;4.32;;;;;;;4.20;67.13;98078.03;5031531;28;20402;-74
2023/12/23 00:11:11;;;;;;;7.05;4.32;;;;;;;4.22;66.45;98059.16;5031759;28;20072;-74
2023/12/23 00:13:37;;;;;;;6.22;3.72;;;;;;;4.13;67.09;98061.13;5033553;28;20137;-73
2023/12/23 00:16:02;;;;;;;6.57;3.17;;;;;;;4.11;66.56;98061.44;5039240;28;20032;-73
2023/12/23 00:18:28;;;;;;;4.43;3.05;;;;;;;4.12;67.98;98079.66;5031434;28;20035;-73
2023/12/23 00:20:53;;;;;;;7.68;3.97;;;;;;;4.27;66.81;98070.06;5030176;28;20499;-73
2023/12/23 00:23:19;;;;;;;6.30;3.75;;;;;;;4.25;69.11;98061.28;5027863;28;20465;-73
2023/12/23 00:25:44;;;;;;;8.02;3.80;;;;;;;4.34;69.42;98044.66;5036401;28;20540;-73
2023/12/23 00:28:10;;;;;;;16.38;5.63;;;;;;;4.37;68.20;98049.53;5046187;28;20033;-73
2023/12/23 00:30:35;;;;;;;8.95;6.03;;;;;;;4.35;66.85;98069.25;5029942;28;20026;-73
2023/12/23 00:33:02;;;;;;;8.75;5.25;;;;;;;4.16;68.01;98075.13;5031397;28;20022;-73
2023/12/23 00:35:28;;;;;;;12.98;6.60;;;;;;;4.14;69.16;98058.00;5031320;28;20061;-73
2023/12/23 00:37:53;;;;;;;11.10;5.53;;;;;;;4.26;68.65;98060.13;5030263;28;20112;-73
2023/12/23 00:40:19;;;;;;;12.52;5.07;;;;;;;4.34;69.41;98075.09;5041586;28;20036;-73
2023/12/23 00:42:44;;;;;;;6.22;3.70;;;;;;;4.18;68.33;98074.78;5040918;28;20495;-73
2023/12/23 00:45:10;;;;;;;4.28;3.03;;;;;;;4.18;68.67;98066.47;5041549;28;20022;-73
2023/12/23 00:47:35;;;;;;;3.08;2.42;;;;;;;4.06;69.61;98056.88;5039297;28;20040;-73
2023/12/23 00:50:01;;;;;;;4.13;3.15;;;;;;;4.16;69.22;98052.16;5040303;28;20078;-73
2023/12/23 00:52:28;;;;;;;5.75;3.50;;;;;;;4.10;69.70;98047.91;5042934;28;20071;-73
2023/12/23 00:54:54;;;;;;;5.65;3.45;;;;;;;4.16;70.25;98046.63;5040324;28;20022;-73
2023/12/23 00:57:20;;;;;;;5.15;3.42;;;;;;;4.17;70.35;98026.13;5044999;28;20409;-73
2023/12/23 00:59:45;;;;;;;5.43;3.75;;;;;;;4.08;70.95;98004.78;5043482;28;20064;-72
2023/12/23 01:02:11;;;;;;;6.75;3.70;;;;;;;4.01;70.69;98003.66;5043470;28;20674;-72
2023/12/23 01:04:38;;;;;;;5.10;3.63;;;;;;;4.07;71.14;98014.22;5044979;28;20493;-71
2023/12/23 01:07:03;;;;;;;5.30;3.58;;;;;;;3.98;71.14;97990.50;5042614;28;20408;-71
2023/12/23 01:09:29;;;;;;;7.75;5.20;;;;;;;3.90;70.66;97981.06;5044961;28;20021;-71
2023/12/23 01:11:55;;;;;;;6.25;4.40;;;;;;;3.69;72.20;98001.06;5043507;28;20120;-71
2023/12/23 01:14:21;;;;;;;7.00;3.92;;;;;;;3.75;72.37;97980.44;5052710;28;20079;-71
2023/12/23 01:16:46;;;;;;;8.38;4.65;;;;;;;3.65;73.14;98000.13;5051537;28;20509;-71
2023/12/23 01:19:12;;;;;;;8.63;4.60;;;;;;;3.28;74.48;97989.34;5047763;28;20029;-71
2023/12/23 01:21:37;;;;;;;9.57;4.47;;;;;;;3.54;73.68;97984.97;5043067;28;20029;-71
2023/12/23 01:24:03;;;;;;;7.65;4.50;;;;;;;3.53;73.71;97983.34;5048007;28;20033;-71
2023/12/23 01:26:28;;;;;;;7.38;4.68;;;;;;;3.59;73.41;97965.44;5042910;28;20028;-71
2023/12/23 01:29:00;;;;;;;7.75;3.80;;;;;;;3.64;72.60;97974.41;5041514;28;20025;-71
2023/12/23 01:31:26;;;;;;;9.20;4.68;;;;;;;3.40;73.97;97980.41;5045059;28;20091;-71
2023/12/23 01:33:51;;;;;;;6.40;4.68;;;;;;;3.56;74.25;97988.22;5044523;28;20100;-71
2023/12/23 01:36:17;;;;;;;6.90;4.20;;;;;;;3.57;73.97;97985.16;5043968;28;20051;-72
2023/12/23 01:38:42;;;;;;;8.68;4.50;;;;;;;3.52;73.44;97977.00;5042610;28;20072;-71
2023/12/23 01:41:08;;;;;;;5.63;4.30;;;;;;;3.54;72.86;97990.50;5042691;28;20489;-71
2023/12/23 01:43:33;;;;;;;9.02;4.68;;;;;;;3.65;72.80;97989.84;5043960;28;20032;-71
2023/12/23 01:45:59;;;;;;;7.78;4.25;;;;;;;3.67;72.66;97985.94;5043381;28;20117;-71
2023/12/23 01:48:27;;;;;;;7.38;4.00;;;;;;;3.76;74.16;97982.06;5043612;28;20033;-71
2023/12/23 01:50:53;;;;;;;7.10;4.75;;;;;;;3.43;74.90;98007.41;5042513;28;20035;-71
2023/12/23 01:53:20;;;;;;;8.10;4.85;;;;;;;3.17;75.36;98001.81;5060088;28;20457;-71
2023/12/23 01:55:48;;;;;;;11.35;4.95;;;;;;;3.19;77.65;98011.44;5073924;28;20028;-71
2023/12/23 01:58:14;;;;;;;9.10;4.85;;;;;;;2.89;78.96;98002.88;5072651;28;20442;-71
2023/12/23 02:00:39;;;;;;;8.55;4.88;;;;;;;2.81;80.69;97984.34;5071131;28;20028;-71
2023/12/23 02:03:05;;;;;;;8.23;5.45;;;;;;;2.33;81.52;97972.94;5034598;28;20079;-71
2023/12/23 02:05:30;;;;;;;15.52;6.40;;;;;;;2.65;81.56;97957.19;5042667;28;20043;-71
2023/12/23 02:07:56;;;;;;;11.25;6.07;;;;;;;2.05;83.19;97962.09;5052105;28;20037;-71
2023/12/23 02:10:22;;;;;;;14.93;9.02;;;;;;;2.00;83.55;97967.72;5053341;28;20158;-71
2023/12/23 02:13:06;;;;;;;14.73;8.55;;;;;;;2.21;83.23;97984.56;5034810;28;20467;-71
2023/12/23 02:15:33;;;;;;;17.05;7.43;;;;;;;2.01;82.69;97993.38;5033526;28;20477;-71
2023/12/23 02:17:59;;;;;;;13.70;7.60;;;;;;;2.25;82.89;97982.00;5033351;28;20032;-71
2023/12/23 02:20:25;;;;;;;15.27;7.55;;;;;;;2.42;82.34;97980.47;5032100;28;20033;-71
2023/12/23 02:22:51;;;;;;;24.20;12.98;;;;;;;2.63;81.08;97980.72;5045098;28;20044;-71
2023/12/23 02:25:16;;;;;;;23.27;11.77;;;;;;;2.84;80.23;97975.44;5058799;28;20037;-71
2023/12/23 02:27:51;;;;;;;20.40;11.93;;;;;;;2.98;81.09;97961.50;5053790;28;20036;-71
2023/12/23 02:30:18;;;;;;;29.02;13.63;;;;;;;3.04;80.25;97964.91;5051918;28;20021;-71
2023/12/23 02:32:44;;;;;;;20.88;12.13;;;;;;;3.08;79.67;97952.09;5051893;28;20515;-71
2023/12/23 02:35:11;;;;;;;22.33;11.60;;;;;;;3.10;81.03;97919.41;5046763;28;20094;-71
2023/12/23 02:37:37;;;;;;;19.63;10.07;;;;;;;3.20;80.42;97926.59;5037117;28;20025;-71
2023/12/23 02:40:02;;;;;;;19.10;9.65;;;;;;;2.95;79.77;97940.84;5053082;28;20405;-71
2023/12/23 02:42:28;;;;;;;21.40;9.70;;;;;;;2.89;81.24;97931.06;5053421;28;20036;-71
2023/12/23 02:44:53;;;;;;;13.32;7.80;;;;;;;2.90;80.14;97941.00;5052347;28;20040;-71
2023/12/23 02:47:19;;;;;;;16.20;8.65;;;;;;;2.99;80.74;97932.75;5052302;28;20028;-71
2023/12/23 02:49:44;;;;;;;18.17;7.45;;;;;;;3.08;79.21;97918.94;5043539;28;20116;-71
2023/12/23 02:52:10;;;;;;;13.07;6.90;;;;;;;2.87;78.45;97932.56;5033255;28;20029;-71
2023/12/23 02:54:35;;;;;;;13.45;7.50;;;;;;;2.77;78.63;97912.38;5071381;28;20480;-71
2023/12/23 02:57:00;;;;;;;12.35;7.00;;;;;;;2.87;78.85;97924.25;5071096;28;20040;-71
2023/12/23 02:59:26;;;;;;;8.98;5.97;;;;;;;2.75;79.01;97925.69;5034970;28;20037;-71
2023/12/23 03:01:53;;;;;;;10.63;5.93;;;;;;;2.91;79.11;97887.41;5032692;28;20022;-71
2023/12/23 03:04:19;;;;;;;10.43;6.03;;;;;;;2.85;78.53;97913.53;5031373;28;20025;-71
2023/12/23 03:06:44;;;;;;;8.32;5.10;;;;;;;2.62;78.14;97921.91;5032701;28;20531;-71
2023/12/23 03:09:10;;;;;;;11.02;6.70;;;;;;;2.54;79.87;97895.13;5032603;28;20485;-71
2023/12/23 03:11:37;;;;;;;15.60;7.82;;;;;;;2.36;82.67;97922.63;5032294;28;20493;-71
2023/12/23 03:14:03;;;;;;;11.70;6.68;;;;;;;2.59;81.89;97903.25;5031113;28;20024;-71
2023/12/23 03:16:33;;;;;;;10.52;7.00;;;;;;;2.56;80.11;97905.81;5031048;28;20037;-71
2023/12/23 03:18:59;;;;;;;;;;;;;;;2.85;80.79;97901.69;5032289;28;20025;-71
2023/12/23 03:21:25;;;;;;;23.75;13.57;;;;;;;2.89;80.50;97894.38;5032413;28;20004;-70
2023/12/23 03:23:50;;;;;;;16.48;9.20;;;;;;;2.97;81.02;97874.25;5059549;28;20101;-71
2023/12/23 03:26:16;;;;;;;14.95;9.38;;;;;;;2.73;82.18;97880.19;5070910;28;20409;-70
2023/12/23 03:28:41;;;;;;;15.80;8.73;;;;;;;2.83;82.15;97898.41;5072271;28;20025;-71
2023/12/23 03:31:07;;;;;;;13.98;7.30;;;;;;;2.12;84.98;97887.16;5070663;28;20029;-70
2023/12/23 03:33:32;;;;;;;15.68;8.80;;;;;;;2.12;86.93;97914.75;5032068;28;20028;-71
2023/12/23 03:36:01;;;;;;;8.15;5.57;;;;;;;2.12;87.15;97883.59;5043890;28;20040;-71
2023/12/23 03:38:27;;;;;;;9.98;7.00;;;;;;;2.02;88.47;97909.50;5051931;28;20031;-70
2023/12/23 03:40:53;;;;;;;8.15;5.10;;;;;;;2.12;88.36;97873.38;5052022;28;20424;-71
2023/12/23 03:43:18;;;;;;;7.57;5.32;;;;;;;2.06;89.32;97886.50;5046865;28;20465;-71
2023/12/23 03:45:44;;;;;;;8.02;5.63;;;;;;;2.20;88.52;97886.38;5031774;28;20026;-70
2023/12/23 03:48:09;;;;;;;13.93;6.50;;;;;;;2.34;87.69;97866.13;5032236;28;20029;-71
2023/12/23 03:50:35;;;;;;;8.20;5.78;;;;;;;2.15;88.94;97878.25;5030702;28;20025;-70
2023/12/23 03:53:01;;;;;;;71.78;37.83;;;;;;;2.21;87.52;97871.44;5045410;28;20031;-71
2023/12/23 03:55:32;;;;;;;19.83;12.15;;;;;;;2.01;87.53;97872.81;5071693;28;20512;-71
2023/12/23 03:57:58;;;;;;;17.67;8.73;;;;;;;1.99;87.54;97880.59;5071797;28;20051;-71
2023/12/23 04:00:24;;;;;;;14.05;6.90;;;;;;;2.12;87.78;97898.22;5070633;28;20025;-70
2023/12/23 04:02:49;;;;;;;16.55;7.22;;;;;;;2.10;87.35;97876.44;5071543;28;20016;-71
2023/12/23 04:05:15;;;;;;;10.75;6.85;;;;;;;2.17;86.88;97880.69;5064239;28;20017;-72
2023/12/23 04:07:41;;;;;;;15.85;8.88;;;;;;;2.23;86.64;97879.41;5051750;28;20409;-71
2023/12/23 04:10:07;;;;;;;26.80;8.82;;;;;;;2.29;87.49;97894.69;5051892;28;20036;-70
2023/12/23 04:12:32;;;;;;;13.65;8.63;;;;;;;2.15;88.67;97881.00;5051490;28;20039;-71
2023/12/23 04:14:57;;;;;;;13.43;8.82;;;;;;;1.57;90.73;97915.88;5049959;28;20170;-70
2023/12/23 04:17:23;;;;;;;12.20;7.60;;;;;;;1.80;91.78;97894.63;5051276;28;20405;-70
2023/12/23 04:19:50;;;;;;;14.18;8.77;;;;;;;2.04;90.96;97883.22;5048208;28;20540;-71
2023/12/23 04:22:16;;;;;;;15.02;8.40;;;;;;;1.85;90.93;97901.94;5030298;28;20049;-70
2023/12/23 04:24:41;;;;;;;14.75;8.63;;;;;;;1.94;91.27;97900.06;5030673;28;20524;-71
2023/12/23 04:27:07;;;;;;;13.40;7.95;;;;;;;2.06;90.43;97880.97;5030316;28;20056;-70
2023/12/23 04:29:32;;;;;;;15.50;9.20;;;;;;;2.13;90.29;97855.69;5036774;28;20048;-71
2023/12/23 04:31:58;;;;;;;31.98;18.83;;;;;;;2.23;89.29;97885.75;5055321;28;20040;-71
2023/12/23 04:34:23;;;;;;;32.63;16.17;;;;;;;2.27;88.89;97874.88;5053593;28;20025;-71
2023/12/23 04:36:49;;;;;;;46.03;30.17;;;;;;;2.02;89.76;97890.19;5034067;28;20099;-71
2023/12/23 04:39:15;;;;;;;77.97;47.80;;;;;;;2.20;89.47;97866.25;5033897;28;20026;-71
2023/12/23 04:41:46;;;;;;;66.38;41.15;;;;;;;2.34;88.78;97875.22;5037822;28;20037;-70
2023/12/23 04:44:13;;;;;;;58.30;36.13;;;;;;;2.37;88.63;97848.97;5035230;28;20025;-71
2023/12/23 04:46:39;;;;;;;76.82;42.30;;;;;;;2.44;88.20;97862.28;5034394;28;20025;-70
2023/12/23 04:49:04;;;;;;;79.05;44.75;;;;;;;2.38;88.56;97854.13;5033911;28;20098;-71
2023/12/23 04:51:30;;;;;;;76.65;40.20;;;;;;;2.42;87.71;97870.88;5035095;28;20033;-71
2023/12/23 04:53:55;;;;;;;68.28;32.15;;;;;;;2.15;88.21;97849.84;5061756;28;20029;-71
2023/12/23 04:56:22;;;;;;;51.05;24.25;;;;;;;2.24;87.86;97848.75;5075034;28;20385;-70
2023/12/23 04:58:48;;;;;;;35.22;19.00;;;;;;;2.19;87.40;97856.38;5075007;28;20081;-71
2023/12/23 05:01:13;;;;;;;26.02;14.35;;;;;;;2.29;86.91;97831.22;5067720;28;20098;-70
2023/12/23 05:03:40;;;;;;;21.05;11.68;;;;;;;1.93;87.41;97863.38;5054830;28;20029;-70
2023/12/23 05:06:06;;;;;;;18.25;10.30;;;;;;;1.87;88.41;97831.56;5053351;28;20028;-70
2023/12/23 05:08:32;;;;;;;34.08;16.65;;;;;;;1.76;88.38;97864.09;5053364;28;20032;-70
2023/12/23 05:11:01;;;;;;;32.97;13.23;;;;;;;1.68;89.96;97859.34;5053189;28;20029;-71
2023/12/23 05:13:27;;;;;;;26.17;14.30;;;;;;;1.86;88.91;97859.47;5053219;28;20025;-71
2023/12/23 05:15:52;;;;;;;30.63;14.55;;;;;;;2.04;88.26;97861.16;5054684;28;20186;-70
2023/12/23 05:18:18;;;;;;;24.23;13.90;;;;;;;2.19;87.47;97870.16;5054331;28;20058;-70
2023/12/23 05:20:43;;;;;;;28.20;14.27;;;;;;;2.30;87.18;97863.22;5036274;28;20030;-71
2023/12/23 05:23:08;;;;;;;34.08;14.50;;;;;;;2.13;88.52;97875.00;5051794;28;20032;-71
2023/12/23 05:25:34;;;;;;;30.98;15.27;;;;;;;2.29;88.33;97874.56;5074441;28;20056;-70
2023/12/23 05:27:59;;;;;;;29.08;12.32;;;;;;;2.30;87.94;97877.03;5074227;28;20032;-70
2023/12/23 05:30:25;;;;;;;25.33;12.90;;;;;;;2.07;87.35;97868.81;5074350;28;20033;-70
2023/12/23 05:32:51;;;;;;;24.35;13.23;;;;;;;2.26;88.19;97876.00;5074491;28;20025;-71
2023/12/23 05:35:16;;;;;;;26.92;15.23;;;;;;;1.85;89.26;97849.56;5062703;28;20056;-71
2023/12/23 05:37:42;;;;;;;26.85;15.73;;;;;;;1.87;90.36;97852.81;5034457;28;20033;-70
2023/12/23 05:40:09;;;;;;;39.10;19.08;;;;;;;1.78;89.07;97848.06;5033362;28;20025;-70
2023/12/23 05:42:34;;;;;;;30.05;18.58;;;;;;;1.72;91.04;97832.78;5049426;28;20071;-70
2023/12/23 05:45:00;;;;;;;38.28;20.23;;;;;;;1.38;92.43;97840.53;5053043;28;20092;-70
2023/12/23 05:47:25;;;;;;;35.53;20.02;;;;;;;1.58;92.83;97835.63;5034226;28;20421;-70
2023/12/23 05:49:51;;;;;;;36.08;20.98;;;;;;;1.50;93.70;97845.47;5035568;28;20040;-71
2023/12/23 05:52:16;;;;;;;39.38;16.27;;;;;;;1.09;93.12;97863.03;5053619;28;20029;-70
2023/12/23 05:54:42;;;;;;;27.33;14.15;;;;;;;1.04;94.29;97846.59;5054084;28;20029;-71
2023/12/23 05:57:07;;;;;;;20.58;13.23;;;;;;;0.90;96.01;97861.22;5053952;28;20029;-70
2023/12/23 05:59:33;;;;;;;22.23;13.52;;;;;;;1.19;96.40;97870.22;5052631;28;20029;-71
2023/12/23 06:01:58;;;;;;;18.90;11.27;;;;;;;1.12;95.52;97887.97;5054094;28;20036;-71
2023/12/23 06:04:24;;;;;;;21.65;11.45;;;;;;;1.05;96.94;97892.28;5053483;28;20059;-71
2023/12/23 06:06:49;;;;;;;16.15;10.77;;;;;;;0.85;95.97;97905.41;5039842;28;20043;-71
2023/12/23 06:09:15;;;;;;;25.52;15.60;;;;;;;1.17;96.88;97906.31;5052823;28;20083;-71
2023/12/23 06:11:40;;;;;;;22.30;11.98;;;;;;;1.30;96.84;97932.22;5052417;28;20032;-72
2023/12/23 06:14:06;;;;;;;16.45;9.25;;;;;;;1.32;96.47;97938.22;5042896;28;20375;-74
2023/12/23 06:16:37;;;;;;;14.43;8.43;;;;;;;1.44;95.26;97958.91;5043395;28;20505;-72
2023/12/23 06:19:03;;;;;;;13.07;8.18;;;;;;;1.34;94.82;97949.75;5053077;28;20119;-73
2023/12/23 06:21:28;;;;;;;14.65;8.98;;;;;;;1.51;94.30;97942.75;5051416;28;20025;-74
2023/12/23 06:23:54;;;;;;;13.90;8.40;;;;;;;1.62;94.05;97910.25;5051925;28;20045;-73
2023/12/23 06:26:19;;;;;;;13.40;7.57;;;;;;;1.58;93.80;97910.03;5053158;28;20029;-72
2023/12/23 06:28:45;;;;;;;11.30;7.97;;;;;;;1.74;93.68;97904.13;5052974;28;20037;-72
2023/12/23 06:31:10;;;;;;;26.52;20.40;;;;;;;1.85;93.11;97897.22;5049759;28;20033;-72
2023/12/23 06:33:36;;;;;;;13.60;9.35;;;;;;;1.88;91.61;97901.31;5047704;28;20424;-74
2023/12/23 06:36:02;;;;;;;19.20;11.35;;;;;;;1.60;91.73;97899.53;5031946;28;20064;-73
2023/12/23 06:38:28;;;;;;;26.77;16.52;;;;;;;1.33;92.05;97914.25;5048223;28;20036;-71
2023/12/23 06:40:55;;;;;;;35.30;19.50;;;;;;;1.61;92.40;97923.19;5039215;28;20025;-72
2023/12/23 06:43:21;;;;;;;65.35;28.33;;;;;;;1.77;92.14;97945.69;5035558;28;20119;-71
2023/12/23 06:45:46;;;;;;;86.88;45.65;;;;;;;1.76;92.60;97954.28;5040632;28;20120;-71
2023/12/23 06:48:12;;;;;;;68.88;37.75;;;;;;;1.52;93.20;97938.88;5046438;28;20048;-74
2023/12/23 06:50:37;;;;;;;63.58;36.60;;;;;;;1.46;93.74;97956.66;5040993;28;20275;-73
2023/12/23 06:53:03;;;;;;;57.25;31.42;;;;;;;1.49;94.16;97953.25;5029108;28;20060;-75
2023/12/23 06:55:28;;;;;;;114.25;75.45;;;;;;;1.38;94.78;97938.91;5036501;28;20040;-72
2023/12/23 06:57:54;;;;;;;91.43;60.92;;;;;;;1.27;96.15;97932.84;5045731;28;20426;-73
2023/12/23 07:00:20;;;;;;;75.07;48.10;;;;;;;1.55;95.90;97932.72;5030681;28;20033;-71
2023/12/23 07:02:45;;;;;;;40.42;23.02;;;;;;;1.85;94.31;97932.28;5036953;28;20097;-72
2023/12/23 07:05:11;;;;;;;24.95;17.13;;;;;;;1.79;93.37;97924.13;5048067;28;20021;-71
2023/12/23 07:07:38;;;;;;;27.13;15.85;;;;;;;1.79;93.27;97926.09;5043323;28;20037;-75
2023/12/23 07:10:05;;;;;;;32.22;16.90;;;;;;;1.91;92.88;97945.63;5040379;28;20167;-72
2023/12/23 07:12:30;;;;;;;33.42;15.52;;;;;;;1.72;94.12;97954.09;5042371;28;20128;-74
2023/12/23 07:14:56;;;;;;;40.58;22.67;;;;;;;1.95;94.33;97924.53;5043562;28;20851;-74
2023/12/23 07:17:21;;;;;;;37.55;22.13;;;;;;;2.26;93.40;97922.91;5035173;28;20493;-77
2023/12/23 07:19:47;;;;;;;37.78;25.90;;;;;;;2.50;92.43;97880.31;5040238;28;20063;-74
2023/12/23 07:22:12;;;;;;;41.55;28.23;;;;;;;2.72;90.99;97903.44;5041649;28;20501;-72
2023/12/23 07:24:39;;;;;;;129.90;81.55;;;;;;;2.72;90.27;97882.16;5064688;28;20047;-73
2023/12/23 07:27:04;;;;;;;169.25;96.15;;;;;;;2.77;nan;97897.75;5043019;28;20029;-74
2023/12/23 07:29:30;;;;;;;37.17;24.33;;;;;;;2.75;92.31;97900.84;5035312;28;20059;-74
2023/12/23 07:31:55;;;;;;;39.25;21.88;;;;;;;2.91;92.25;97886.56;5035977;28;20106;-71
2023/12/23 07:34:21;;;;;;;88.53;45.63;;;;;;;3.28;90.92;97883.50;5040032;28;20505;-71
2023/12/23 07:36:46;;;;;;;36.15;17.13;;;;;;;3.41;90.08;97876.19;5042582;28;20371;-68
2023/12/23 07:39:14;;;;;;;28.75;16.35;;;;;;;3.43;89.76;97899.59;5032806;28;20398;-71
2023/12/23 07:41:39;;;;;;;45.28;26.20;;;;;;;3.46;90.29;97887.09;5042805;28;20028;-68
2023/12/23 07:44:04;;;;;;;47.80;28.33;;;;;;;3.56;90.30;97884.00;5037878;28;20028;-71
2023/12/23 07:46:30;;;;;;;74.75;37.95;;;;;;;3.82;90.27;97896.94;5053049;28;20068;-69
2023/12/23 07:48:56;;;;;;;77.65;39.65;;;;;;;4.14;91.11;97888.41;5031804;28;20409;-71
2023/12/23 07:51:21;;;;;;;63.15;32.17;;;;;;;4.47;88.72;97890.56;5041793;28;20489;-69
2023/12/23 07:53:47;;;;;;;59.38;31.60;;;;;;;4.66;90.89;97901.22;5047918;28;20429;-71
2023/12/23 07:56:12;;;;;;;59.40;32.42;;;;;;;4.90;88.88;97894.22;5063328;28;20036;-70
2023/12/23 07:58:37;;;;;;;77.13;39.80;;;;;;;5.29;87.24;97910.72;5038855;28;20036;-71
2023/12/23 08:01:03;;;;;;;54.97;27.02;;;;;;;5.52;85.79;97896.50;5041290;28;20033;-72
2023/12/23 08:03:29;;;;;;;60.10;26.30;;;;;;;5.95;82.39;97909.19;5040739;28;20542;-73
2023/12/23 08:05:54;;;;;;;43.85;20.42;;;;;;;6.22;82.68;97903.38;5049380;28;20382;-72
2023/12/23 08:08:20;;;;;;;33.08;21.08;;;;;;;6.35;81.03;97904.19;5033519;28;20048;-71
2023/12/23 08:10:45;;;;;;;31.55;14.73;;;;;;;6.65;78.53;97906.78;5041649;28;20044;-70
2023/12/23 08:13:11;;;;;;;42.17;19.33;;;;;;;7.18;78.93;97912.41;5038693;28;20490;-71
2023/12/23 08:15:36;;;;;;;44.80;19.67;;;;;;;7.08;78.76;97912.88;5041035;28;20052;-71
2023/12/23 08:18:02;;;;;;;26.65;11.30;;;;;;;7.02;78.11;97895.63;5063097;28;20081;-71
2023/12/23 08:20:28;;;;;;;29.10;13.52;;;;;;;7.06;76.26;97898.50;5041695;28;20028;-74
2023/12/23 08:22:53;;;;;;;34.47;16.27;;;;;;;7.17;74.69;97916.31;5053890;28;20418;-73
2023/12/23 08:25:20;;;;;;;25.42;15.02;;;;;;;7.28;69.82;97927.78;5056561;28;20048;-74
2023/12/23 08:27:45;;;;;;;24.45;13.90;;;;;;;7.88;65.99;97938.28;5050704;28;20033;-72
2023/12/23 08:30:11;;;;;;;27.90;13.20;;;;;;;7.99;71.71;97953.31;5046982;28;20039;-72
2023/12/23 08:32:37;;;;;;;57.35;26.98;;;;;;;8.19;69.68;97950.63;5051336;28;20032;-71
2023/12/23 08:35:02;;;;;;;60.97;35.42;;;;;;;8.46;70.24;97962.13;5057677;28;20033;-70
2023/12/23 08:37:28;;;;;;;59.40;25.17;;;;;;;8.74;72.00;97938.97;5042535;28;20094;-72
2023/12/23 08:39:54;;;;;;;54.38;21.83;;;;;;;8.64;74.54;97942.28;5040496;28;20025;-69
2023/12/23 08:42:20;;;;;;;37.28;20.02;;;;;;;8.66;77.14;97945.50;5056545;28;20033;-74
2023/12/23 08:44:46;;;;;;;30.80;17.50;;;;;;;8.83;74.18;97956.31;5031923;28;20037;-73
2023/12/23 08:47:12;;;;;;;33.78;17.88;;;;;;;9.14;72.65;97945.47;5032679;28;20346;-72
2023/12/23 08:49:39;;;;;;;25.85;15.70;;;;;;;9.40;69.71;97936.50;5050585;28;20025;-75
2023/12/23 08:52:05;;;;;;;22.75;13.98;;;;;;;9.77;66.30;97945.63;5036521;28;20029;-71
2023/12/23 08:54:34;;;;;;;41.60;19.90;;;;;;;10.00;64.89;97950.50;5039724;28;20462;-74
2023/12/23 08:56:59;;;;;;;29.95;13.80;;;;;;;9.92;66.46;97939.19;5053678;28;20040;-74
2023/12/23 08:59:25;;;;;;;36.33;19.77;;;;;;;9.94;63.64;97949.97;5056211;28;20093;-75
2023/12/23 09:01:50;;;;;;;41.55;22.58;;;;;;;10.10;62.39;97941.50;5052940;28;20036;-75
2023/12/23 09:04:18;;;;;;;12.50;8.23;;;;;;;10.35;61.75;97913.22;5058063;28;20032;-74
2023/12/23 09:06:43;;;;;;;13.52;6.55;;;;;;;10.69;59.17;97927.44;5040679;28;20034;-73
2023/12/23 09:09:09;;;;;;;19.70;9.10;;;;;;;11.01;60.72;97935.56;5047726;28;20099;-70
2023/12/23 09:11:41;;;;;;;18.88;10.15;;;;;;;11.09;61.17;97942.84;5054926;28;20036;-76
2023/12/23 09:14:07;;;;;;;18.40;11.82;;;;;;;11.41;57.28;97943.72;5041541;28;20547;-71
2023/12/23 09:16:32;;;;;;;19.42;11.68;;;;;;;11.70;54.27;97932.91;5039612;28;20028;-70
2023/12/23 09:18:58;;;;;;;8.80;5.60;;;;;;;11.91;54.77;97926.78;5047460;28;20033;-71
2023/12/23 09:21:23;;;;;;;4.32;3.92;;;;;;;11.97;53.82;97938.47;5052862;28;20044;-72
2023/12/23 09:23:48;;;;;;;10.23;7.10;;;;;;;11.90;52.38;97939.19;5035210;28;20112;-68
2023/12/23 09:26:14;;;;;;;12.48;8.13;;;;;;;11.98;52.38;97952.06;5048261;28;20032;-69
2023/12/23 09:28:40;;;;;;;11.85;5.20;;;;;;;11.91;51.93;97918.38;5059625;28;20090;-70
2023/12/23 09:31:06;;;;;;;10.82;4.93;;;;;;;12.22;49.45;97935.97;5055818;28;20485;-70
2023/12/23 09:33:31;;;;;;;6.13;3.33;;;;;;;12.46;48.19;97943.03;5048544;28;20025;-70
2023/12/23 09:35:56;;;;;;;13.27;8.52;;;;;;;12.72;48.72;97958.09;5055696;28;20032;-70
2023/12/23 09:38:22;;;;;;;6.32;3.47;;;;;;;12.86;46.19;97967.84;5041700;28;20120;-73
2023/12/23 09:40:47;;;;;;;7.38;5.22;;;;;;;13.02;47.48;97948.72;5034657;28;20029;-74
2023/12/23 09:43:15;;;;;;;10.80;5.75;;;;;;;13.10;47.21;97974.06;5039517;28;20016;-73
2023/12/23 09:45:42;;;;;;;10.68;6.03;;;;;;;12.95;48.19;97985.16;5039709;28;20025;-72
2023/12/23 09:48:07;;;;;;;4.13;2.22;;;;;;;13.22;48.16;97982.16;5041040;28;20021;-71
2023/12/23 09:50:33;;;;;;;11.30;2.70;;;;;;;13.75;46.36;97994.19;5056018;28;20029;-72
2023/12/23 09:53:02;;;;;;;8.80;3.45;;;;;;;13.80;45.84;98001.44;5041135;28;20033;-73
2023/12/23 09:55:30;;;;;;;3.67;1.90;;;;;;;13.93;43.14;97973.81;5043592;28;20516;-73
2023/12/23 09:57:56;;;;;;;5.45;2.45;;;;;;;13.94;44.73;97992.28;5043485;28;20037;-71
2023/12/23 10:00:22;;;;;;;15.05;3.58;;;;;;;13.87;46.45;97988.22;5052612;28;20025;-73
2023/12/23 10:02:47;;;;;;;9.68;2.13;;;;;;;13.49;47.49;97996.03;5049880;28;20423;-74
2023/12/23 10:05:12;;;;;;;4.00;1.95;;;;;;;13.37;49.95;98011.16;5036017;28;20037;-73
2023/12/23 10:07:38;;;;;;;5.40;2.15;;;;;;;13.24;51.38;98027.50;5056541;28;20032;-71
2023/12/23 10:10:04;;;;;;;6.60;3.33;;;;;;;12.60;53.75;98034.91;5045485;28;20025;-73
2023/12/23 10:12:30;;;;;;;18.05;10.05;;;;;;;11.94;55.80;98050.13;5042094;28;20107;-72
2023/12/23 10:14:55;;;;;;;12.48;6.28;;;;;;;11.64;58.50;98050.88;5043066;28;20089;-73
2023/12/23 10:17:21;;;;;;;8.95;2.95;;;;;;;11.65;58.97;98062.91;5054394;28;20032;-73
2023/12/23 10:19:48;;;;;;;5.40;2.72;;;;;;;11.50;60.42;98089.84;5047845;28;20040;-70
2023/12/23 10:22:16;;;;;;;5.43;3.13;;;;;;;11.52;62.06;98093.09;5033103;28;20072;-71
2023/12/23 10:24:41;;;;;;;4.82;3.00;;;;;;;11.45;61.74;98090.16;5035480;28;20064;-69
2023/12/23 10:27:07;;;;;;;6.50;3.00;;;;;;;11.35;61.43;98089.63;5045548;28;20226;-71
2023/12/23 10:29:34;;;;;;;6.75;3.17;;;;;;;11.42;62.93;98133.72;5056264;28;20037;-69
2023/12/23 10:32:07;;;;;;;11.45;3.30;;;;;;;11.24;62.44;98114.63;5034524;28;20031;-73
2023/12/23 10:34:43;;;;;;;5.38;2.92;;;;;;;11.35;63.15;98136.41;5043552;28;20553;-70
2023/12/23 10:37:09;;;;;;;4.90;2.90;;;;;;;11.23;63.78;98159.78;5033173;28;20231;-73
2023/12/23 10:39:59;;;;;;;4.53;2.15;;;;;;;10.98;64.40;98182.50;5034859;28;20040;-71
2023/12/23 10:42:24;;;;;;;10.63;2.47;;;;;;;10.81;64.28;98218.13;5025956;28;20043;-70
2023/12/23 10:44:51;;;;;;;14.38;2.33;;;;;;;10.57;66.03;98226.78;5031480;28;20041;-69
2023/12/23 10:47:17;;;;;;;3.25;1.95;;;;;;;10.39;66.19;98232.75;5035603;28;20493;-68
2023/12/23 10:49:45;;;;;;;4.50;1.88;;;;;;;9.96;67.98;98246.50;5041020;28;20074;-70
2023/12/23 10:52:14;;;;;;;21.13;1.95;;;;;;;9.59;70.18;98246.75;5050987;28;20515;-68
2023/12/23 10:54:39;;;;;;;1.85;1.45;;;;;;;9.38;72.33;98254.19;5033109;28;20183;-71
2023/12/23 10:57:06;;;;;;;5.57;1.10;;;;;;;9.36;73.92;98259.31;5049659;28;20509;-67
2023/12/23 10:59:32;;;;;;;2.10;1.38;;;;;;;9.35;72.33;98262.44;5044228;28;20060;-70
2023/12/23 11:01:58;;;;;;;2.80;1.40;;;;;;;9.31;74.01;98272.72;5058747;28;20056;-71
2023/12/23 11:04:26;;;;;;;1.95;1.20;;;;;;;9.24;74.07;98290.91;5032168;28;20567;-70
2023/12/23 11:06:52;;;;;;;3.65;1.52;;;;;;;9.18;74.61;98294.28;5046056;28;20111;-70
2023/12/23 11:09:20;;;;;;;3.08;1.00;;;;;;;9.37;72.83;98316.75;5038967;28;20039;-69
2023/12/23 11:11:46;;;;;;;2.00;0.93;;;;;;;9.30;73.44;98319.34;5043413;28;20083;-71
2023/12/23 11:14:13;;;;;;;1.63;1.20;;;;;;;9.24;71.43;98320.75;5041560;28;20078;-72
2023/12/23 11:16:42;;;;;;;3.03;1.98;;;;;;;9.09;72.51;98323.13;5058135;28;20107;-70
2023/12/23 11:19:07;;;;;;;6.43;1.98;;;;;;;9.04;70.87;98311.41;5033970;28;20518;-69
2023/12/23 11:21:35;;;;;;;3.78;2.33;;;;;;;9.04;71.00;98314.19;5048789;28;20033;-68
2023/12/23 11:24:00;;;;;;;16.25;4.00;;;;;;;9.17;70.56;98334.50;5060364;28;20059;-70
2023/12/23 11:26:35;;;;;;;5.22;2.63;;;;;;;9.31;68.92;98328.53;5049954;28;20099;-69